sensor_id;sensor_type;location;lat;lon;timestamp;P1;durP1;ratioP1;P2;durP2;ratioP2
26113;SDS011;13966;48.828;9.064;2022-07-04T00:00:56;5.57;;;1.55;;
26113;SDS011;13966;48.828;9.064;2022-07-04T00:03:22;4.78;;;1.45;;
26113;SDS011;13966;48.828;9.064;2022-07-04T00:05:48;5.07;;;1.65;;
26113;SDS011;13966;48.828;9.064;2022-07-04T00:08:14;4.63;;;1.63;;
26113;SDS011;13966;48.828;9.064;2022-07-04T00:10:40;3.88;;;1.40;;
26113;SDS011;13966;48.828;9.064;2022-07-04T00:13:06;8.73;;;1.38;;
26113;SDS011;13966;48.828;9.064;2022-07-04T00:15:32;2.75;;;1.58;;
26113;SDS011;13966;48.828;9.064;2022-07-04T00:17:58;2.50;;;1.10;;
26113;SDS011;13966;48.828;9.064;2022-07-04T00:20:24;6.28;;;1.30;;
26113;SDS011;13966;48.828;9.064;2022-07-04T00:22:50;3.60;;;1.38;;
26113;SDS011;13966;48.828;9.064;2022-07-04T00:25:16;4.22;;;1.35;;
26113;SDS011;13966;48.828;9.064;2022-07-04T00:27:42;4.03;;;1.23;;
26113;SDS011;13966;48.828;9.064;2022-07-04T00:30:08;2.92;;;1.30;;
26113;SDS011;13966;48.828;9.064;2022-07-04T00:32:35;6.38;;;1.58;;
26113;SDS011;13966;48.828;9.064;2022-07-04T00:35:01;3.95;;;1.30;;
26113;SDS011;13966;48.828;9.064;2022-07-04T00:37:27;4.55;;;1.10;;
26113;SDS011;13966;48.828;9.064;2022-07-04T00:39:53;3.45;;;1.13;;
26113;SDS011;13966;48.828;9.064;2022-07-04T00:42:20;2.45;;;1.33;;
26113;SDS011;13966;48.828;9.064;2022-07-04T00:44:46;7.03;;;1.20;;
26113;SDS011;13966;48.828;9.064;2022-07-04T00:47:12;2.78;;;1.70;;
26113;SDS011;13966;48.828;9.064;2022-07-04T00:49:38;1.20;;;1.08;;
26113;SDS011;13966;48.828;9.064;2022-07-04T00:52:05;4.45;;;1.15;;
26113;SDS011;13966;48.828;9.064;2022-07-04T00:54:31;4.65;;;1.40;;
26113;SDS011;13966;48.828;9.064;2022-07-04T00:56:58;6.10;;;1.40;;
26113;SDS011;13966;48.828;9.064;2022-07-04T00:59:24;3.05;;;1.50;;
26113;SDS011;13966;48.828;9.064;2022-07-04T01:01:50;3.55;;;1.35;;
26113;SDS011;13966;48.828;9.064;2022-07-04T01:04:17;3.20;;;1.63;;
26113;SDS011;13966;48.828;9.064;2022-07-04T01:06:43;4.00;;;1.45;;
26113;SDS011;13966;48.828;9.064;2022-07-04T01:09:10;2.35;;;1.10;;
26113;SDS011;13966;48.828;9.064;2022-07-04T01:11:36;3.85;;;1.10;;
26113;SDS011;13966;48.828;9.064;2022-07-04T01:14:02;2.30;;;1.30;;
26113;SDS011;13966;48.828;9.064;2022-07-04T01:16:30;4.78;;;1.42;;
26113;SDS011;13966;48.828;9.064;2022-07-04T01:18:56;6.75;;;1.50;;
26113;SDS011;13966;48.828;9.064;2022-07-04T01:21:23;1.83;;;0.93;;
26113;SDS011;13966;48.828;9.064;2022-07-04T01:23:49;2.58;;;1.20;;
26113;SDS011;13966;48.828;9.064;2022-07-04T01:26:15;2.50;;;1.38;;
26113;SDS011;13966;48.828;9.064;2022-07-04T01:28:41;5.53;;;1.40;;
26113;SDS011;13966;48.828;9.064;2022-07-04T01:31:07;3.28;;;1.30;;
26113;SDS011;13966;48.828;9.064;2022-07-04T01:33:33;4.10;;;1.48;;
26113;SDS011;13966;48.828;9.064;2022-07-04T01:35:59;4.93;;;1.40;;
26113;SDS011;13966;48.828;9.064;2022-07-04T01:38:25;3.05;;;1.20;;
26113;SDS011;13966;48.828;9.064;2022-07-04T01:40:51;3.03;;;1.75;;
26113;SDS011;13966;48.828;9.064;2022-07-04T01:43:17;3.38;;;1.58;;
26113;SDS011;13966;48.828;9.064;2022-07-04T01:45:44;3.92;;;1.52;;
26113;SDS011;13966;48.828;9.064;2022-07-04T01:48:10;2.85;;;1.20;;
26113;SDS011;13966;48.828;9.064;2022-07-04T01:50:36;7.07;;;1.33;;
26113;SDS011;13966;48.828;9.064;2022-07-04T01:53:03;4.00;;;1.30;;
26113;SDS011;13966;48.828;9.064;2022-07-04T01:55:29;4.60;;;1.33;;
26113;SDS011;13966;48.828;9.064;2022-07-04T01:57:56;3.63;;;1.35;;
26113;SDS011;13966;48.828;9.064;2022-07-04T02:00:22;2.60;;;1.20;;
26113;SDS011;13966;48.828;9.064;2022-07-04T02:03:07;3.70;;;1.40;;
26113;SDS011;13966;48.828;9.064;2022-07-04T02:05:33;2.35;;;1.27;;
26113;SDS011;13966;48.828;9.064;2022-07-04T02:07:59;5.78;;;1.73;;
26113;SDS011;13966;48.828;9.064;2022-07-04T02:10:25;3.42;;;1.42;;
26113;SDS011;13966;48.828;9.064;2022-07-04T02:12:51;3.67;;;1.42;;
26113;SDS011;13966;48.828;9.064;2022-07-04T02:15:36;4.60;;;1.40;;
26113;SDS011;13966;48.828;9.064;2022-07-04T02:18:03;2.47;;;1.45;;
26113;SDS011;13966;48.828;9.064;2022-07-04T02:20:29;3.72;;;1.65;;
26113;SDS011;13966;48.828;9.064;2022-07-04T02:22:55;4.93;;;1.30;;
26113;SDS011;13966;48.828;9.064;2022-07-04T02:25:22;8.98;;;1.50;;
26113;SDS011;13966;48.828;9.064;2022-07-04T02:27:48;4.18;;;1.63;;
26113;SDS011;13966;48.828;9.064;2022-07-04T02:30:15;4.03;;;1.60;;
26113;SDS011;13966;48.828;9.064;2022-07-04T02:32:41;4.30;;;1.50;;
26113;SDS011;13966;48.828;9.064;2022-07-04T02:35:07;3.47;;;1.50;;
26113;SDS011;13966;48.828;9.064;2022-07-04T02:37:34;5.60;;;1.55;;
26113;SDS011;13966;48.828;9.064;2022-07-04T02:40:00;4.65;;;1.50;;
26113;SDS011;13966;48.828;9.064;2022-07-04T02:42:30;6.63;;;1.50;;
26113;SDS011;13966;48.828;9.064;2022-07-04T02:44:56;5.70;;;1.40;;
26113;SDS011;13966;48.828;9.064;2022-07-04T02:47:22;4.40;;;1.80;;
26113;SDS011;13966;48.828;9.064;2022-07-04T02:49:48;3.20;;;1.60;;
26113;SDS011;13966;48.828;9.064;2022-07-04T02:52:14;4.75;;;1.38;;
26113;SDS011;13966;48.828;9.064;2022-07-04T02:54:40;2.70;;;1.50;;
26113;SDS011;13966;48.828;9.064;2022-07-04T02:57:07;2.53;;;1.58;;
26113;SDS011;13966;48.828;9.064;2022-07-04T02:59:33;5.20;;;1.58;;
26113;SDS011;13966;48.828;9.064;2022-07-04T03:01:59;2.63;;;1.50;;
26113;SDS011;13966;48.828;9.064;2022-07-04T03:04:25;3.65;;;1.60;;
26113;SDS011;13966;48.828;9.064;2022-07-04T03:06:51;7.22;;;2.00;;
26113;SDS011;13966;48.828;9.064;2022-07-04T03:09:17;2.17;;;1.50;;
26113;SDS011;13966;48.828;9.064;2022-07-04T03:11:44;2.75;;;1.80;;
26113;SDS011;13966;48.828;9.064;2022-07-04T03:14:10;3.25;;;1.67;;
26113;SDS011;13966;48.828;9.064;2022-07-04T03:16:36;6.22;;;1.50;;
26113;SDS011;13966;48.828;9.064;2022-07-04T03:19:02;2.85;;;1.48;;
26113;SDS011;13966;48.828;9.064;2022-07-04T03:21:29;2.80;;;1.70;;
26113;SDS011;13966;48.828;9.064;2022-07-04T03:23:55;5.65;;;1.70;;
26113;SDS011;13966;48.828;9.064;2022-07-04T03:28:50;7.63;;;1.60;;
26113;SDS011;13966;48.828;9.064;2022-07-04T03:31:16;4.28;;;1.75;;
26113;SDS011;13966;48.828;9.064;2022-07-04T03:33:42;4.30;;;1.60;;
26113;SDS011;13966;48.828;9.064;2022-07-04T03:36:09;4.72;;;1.50;;
26113;SDS011;13966;48.828;9.064;2022-07-04T03:38:35;3.38;;;1.65;;
26113;SDS011;13966;48.828;9.064;2022-07-04T03:41:01;3.05;;;1.50;;
26113;SDS011;13966;48.828;9.064;2022-07-04T03:43:27;2.88;;;1.40;;
26113;SDS011;13966;48.828;9.064;2022-07-04T03:45:53;4.60;;;1.65;;
26113;SDS011;13966;48.828;9.064;2022-07-04T03:48:19;7.10;;;1.58;;
26113;SDS011;13966;48.828;9.064;2022-07-04T03:50:45;3.10;;;1.45;;
26113;SDS011;13966;48.828;9.064;2022-07-04T03:53:11;3.65;;;1.60;;
26113;SDS011;13966;48.828;9.064;2022-07-04T03:55:38;5.68;;;1.60;;
26113;SDS011;13966;48.828;9.064;2022-07-04T03:58:04;3.92;;;1.42;;
26113;SDS011;13966;48.828;9.064;2022-07-04T04:00:30;5.22;;;1.40;;
26113;SDS011;13966;48.828;9.064;2022-07-04T04:02:56;2.25;;;1.30;;
26113;SDS011;13966;48.828;9.064;2022-07-04T04:05:22;10.98;;;1.85;;
26113;SDS011;13966;48.828;9.064;2022-07-04T04:07:53;2.67;;;1.70;;
26113;SDS011;13966;48.828;9.064;2022-07-04T04:10:19;3.03;;;1.40;;
26113;SDS011;13966;48.828;9.064;2022-07-04T04:12:45;5.97;;;1.55;;
26113;SDS011;13966;48.828;9.064;2022-07-04T04:15:11;4.82;;;1.73;;
26113;SDS011;13966;48.828;9.064;2022-07-04T04:17:37;3.88;;;1.50;;
26113;SDS011;13966;48.828;9.064;2022-07-04T04:20:03;4.20;;;1.80;;
26113;SDS011;13966;48.828;9.064;2022-07-04T04:22:30;3.35;;;1.70;;
26113;SDS011;13966;48.828;9.064;2022-07-04T04:24:57;5.95;;;1.65;;
26113;SDS011;13966;48.828;9.064;2022-07-04T04:27:23;3.13;;;1.55;;
26113;SDS011;13966;48.828;9.064;2022-07-04T04:29:49;5.10;;;1.90;;
26113;SDS011;13966;48.828;9.064;2022-07-04T04:32:15;6.43;;;1.80;;
26113;SDS011;13966;48.828;9.064;2022-07-04T04:34:41;5.05;;;1.65;;
26113;SDS011;13966;48.828;9.064;2022-07-04T04:37:07;4.25;;;1.60;;
26113;SDS011;13966;48.828;9.064;2022-07-04T04:39:33;4.40;;;1.55;;
26113;SDS011;13966;48.828;9.064;2022-07-04T04:41:59;5.70;;;1.95;;
26113;SDS011;13966;48.828;9.064;2022-07-04T04:44:25;3.28;;;1.55;;
26113;SDS011;13966;48.828;9.064;2022-07-04T04:46:51;6.35;;;1.63;;
26113;SDS011;13966;48.828;9.064;2022-07-04T04:49:17;3.55;;;1.50;;
26113;SDS011;13966;48.828;9.064;2022-07-04T04:51:44;5.43;;;1.80;;
26113;SDS011;13966;48.828;9.064;2022-07-04T04:54:10;3.88;;;1.50;;
26113;SDS011;13966;48.828;9.064;2022-07-04T04:56:36;4.68;;;1.85;;
26113;SDS011;13966;48.828;9.064;2022-07-04T04:59:02;4.38;;;1.30;;
26113;SDS011;13966;48.828;9.064;2022-07-04T05:01:28;3.63;;;1.55;;
26113;SDS011;13966;48.828;9.064;2022-07-04T05:03:54;4.40;;;1.65;;
26113;SDS011;13966;48.828;9.064;2022-07-04T05:06:20;5.00;;;1.70;;
26113;SDS011;13966;48.828;9.064;2022-07-04T05:08:47;3.05;;;1.83;;
26113;SDS011;13966;48.828;9.064;2022-07-04T05:11:13;4.13;;;1.77;;
26113;SDS011;13966;48.828;9.064;2022-07-04T05:13:39;2.35;;;1.45;;
26113;SDS011;13966;48.828;9.064;2022-07-04T05:16:05;3.08;;;1.48;;
26113;SDS011;13966;48.828;9.064;2022-07-04T05:18:31;3.58;;;1.38;;
26113;SDS011;13966;48.828;9.064;2022-07-04T05:20:58;6.25;;;1.55;;
26113;SDS011;13966;48.828;9.064;2022-07-04T05:23:24;4.57;;;1.60;;
26113;SDS011;13966;48.828;9.064;2022-07-04T05:25:50;4.93;;;1.40;;
26113;SDS011;13966;48.828;9.064;2022-07-04T05:28:16;3.90;;;1.42;;
26113;SDS011;13966;48.828;9.064;2022-07-04T05:30:42;5.88;;;1.65;;
26113;SDS011;13966;48.828;9.064;2022-07-04T05:33:08;2.53;;;1.17;;
26113;SDS011;13966;48.828;9.064;2022-07-04T05:35:34;4.43;;;1.50;;
26113;SDS011;13966;48.828;9.064;2022-07-04T05:38:01;4.35;;;1.20;;
26113;SDS011;13966;48.828;9.064;2022-07-04T05:40:27;3.50;;;1.30;;
26113;SDS011;13966;48.828;9.064;2022-07-04T05:42:53;6.10;;;1.40;;
26113;SDS011;13966;48.828;9.064;2022-07-04T05:45:19;7.25;;;1.60;;
26113;SDS011;13966;48.828;9.064;2022-07-04T05:47:45;6.65;;;1.35;;
26113;SDS011;13966;48.828;9.064;2022-07-04T05:50:12;9.48;;;2.00;;
26113;SDS011;13966;48.828;9.064;2022-07-04T05:52:38;5.47;;;1.38;;
26113;SDS011;13966;48.828;9.064;2022-07-04T05:55:04;8.18;;;1.92;;
26113;SDS011;13966;48.828;9.064;2022-07-04T05:57:31;4.25;;;1.40;;
26113;SDS011;13966;48.828;9.064;2022-07-04T05:59:57;8.30;;;1.42;;
26113;SDS011;13966;48.828;9.064;2022-07-04T06:02:23;4.82;;;1.60;;
26113;SDS011;13966;48.828;9.064;2022-07-04T06:04:49;3.28;;;1.48;;
26113;SDS011;13966;48.828;9.064;2022-07-04T06:07:15;4.15;;;1.10;;
26113;SDS011;13966;48.828;9.064;2022-07-04T06:09:42;2.55;;;1.38;;
26113;SDS011;13966;48.828;9.064;2022-07-04T06:12:09;3.08;;;1.30;;
26113;SDS011;13966;48.828;9.064;2022-07-04T06:14:35;2.50;;;1.17;;
26113;SDS011;13966;48.828;9.064;2022-07-04T06:17:01;3.38;;;1.40;;
26113;SDS011;13966;48.828;9.064;2022-07-04T06:19:27;4.72;;;1.23;;
26113;SDS011;13966;48.828;9.064;2022-07-04T06:21:53;3.15;;;1.23;;
26113;SDS011;13966;48.828;9.064;2022-07-04T06:24:19;5.38;;;1.08;;
26113;SDS011;13966;48.828;9.064;2022-07-04T06:26:45;6.10;;;1.40;;
26113;SDS011;13966;48.828;9.064;2022-07-04T06:29:11;3.35;;;1.50;;
26113;SDS011;13966;48.828;9.064;2022-07-04T06:31:38;4.50;;;0.95;;
26113;SDS011;13966;48.828;9.064;2022-07-04T06:34:04;6.45;;;1.40;;
26113;SDS011;13966;48.828;9.064;2022-07-04T06:36:49;9.63;;;1.85;;
26113;SDS011;13966;48.828;9.064;2022-07-04T06:39:15;5.60;;;1.42;;
26113;SDS011;13966;48.828;9.064;2022-07-04T06:41:41;5.03;;;1.52;;
26113;SDS011;13966;48.828;9.064;2022-07-04T06:44:07;8.18;;;1.60;;
26113;SDS011;13966;48.828;9.064;2022-07-04T06:46:33;2.33;;;1.20;;
26113;SDS011;13966;48.828;9.064;2022-07-04T06:48:59;3.88;;;1.35;;
26113;SDS011;13966;48.828;9.064;2022-07-04T06:51:25;4.10;;;1.23;;
26113;SDS011;13966;48.828;9.064;2022-07-04T06:53:51;6.13;;;1.20;;
26113;SDS011;13966;48.828;9.064;2022-07-04T06:56:17;2.88;;;1.10;;
26113;SDS011;13966;48.828;9.064;2022-07-04T06:58:43;2.40;;;1.30;;
26113;SDS011;13966;48.828;9.064;2022-07-04T07:01:09;5.78;;;1.38;;
26113;SDS011;13966;48.828;9.064;2022-07-04T07:03:35;3.35;;;1.20;;
26113;SDS011;13966;48.828;9.064;2022-07-04T07:06:01;2.97;;;1.00;;
26113;SDS011;13966;48.828;9.064;2022-07-04T07:08:28;5.32;;;1.27;;
26113;SDS011;13966;48.828;9.064;2022-07-04T07:10:55;5.18;;;1.60;;
26113;SDS011;13966;48.828;9.064;2022-07-04T07:13:21;5.40;;;1.42;;
26113;SDS011;13966;48.828;9.064;2022-07-04T07:15:47;2.22;;;1.27;;
26113;SDS011;13966;48.828;9.064;2022-07-04T07:18:13;6.55;;;1.42;;
26113;SDS011;13966;48.828;9.064;2022-07-04T07:20:42;3.28;;;1.40;;
26113;SDS011;13966;48.828;9.064;2022-07-04T07:23:08;5.22;;;1.35;;
26113;SDS011;13966;48.828;9.064;2022-07-04T07:25:34;3.20;;;1.10;;
26113;SDS011;13966;48.828;9.064;2022-07-04T07:28:00;4.30;;;1.25;;
26113;SDS011;13966;48.828;9.064;2022-07-04T07:30:27;3.47;;;1.25;;
26113;SDS011;13966;48.828;9.064;2022-07-04T07:32:53;3.15;;;1.48;;
26113;SDS011;13966;48.828;9.064;2022-07-04T07:35:20;4.32;;;1.38;;
26113;SDS011;13966;48.828;9.064;2022-07-04T07:37:46;2.28;;;1.50;;
26113;SDS011;13966;48.828;9.064;2022-07-04T07:40:13;3.05;;;1.00;;
26113;SDS011;13966;48.828;9.064;2022-07-04T07:42:39;4.15;;;1.20;;
26113;SDS011;13966;48.828;9.064;2022-07-04T07:45:05;2.42;;;1.10;;
26113;SDS011;13966;48.828;9.064;2022-07-04T07:47:31;2.42;;;1.27;;
26113;SDS011;13966;48.828;9.064;2022-07-04T07:49:57;2.58;;;1.10;;
26113;SDS011;13966;48.828;9.064;2022-07-04T07:52:24;2.00;;;1.10;;
26113;SDS011;13966;48.828;9.064;2022-07-04T07:54:50;4.22;;;1.25;;
26113;SDS011;13966;48.828;9.064;2022-07-04T07:57:16;6.05;;;1.38;;
26113;SDS011;13966;48.828;9.064;2022-07-04T07:59:42;4.28;;;1.52;;
26113;SDS011;13966;48.828;9.064;2022-07-04T08:02:08;4.10;;;1.60;;
26113;SDS011;13966;48.828;9.064;2022-07-04T08:04:34;3.05;;;1.30;;
26113;SDS011;13966;48.828;9.064;2022-07-04T08:07:03;4.38;;;1.35;;
26113;SDS011;13966;48.828;9.064;2022-07-04T08:09:29;4.85;;;1.63;;
26113;SDS011;13966;48.828;9.064;2022-07-04T08:11:55;4.45;;;1.70;;
26113;SDS011;13966;48.828;9.064;2022-07-04T08:14:21;1.95;;;1.10;;
26113;SDS011;13966;48.828;9.064;2022-07-04T08:16:47;3.65;;;1.45;;
26113;SDS011;13966;48.828;9.064;2022-07-04T08:19:14;2.67;;;1.30;;
26113;SDS011;13966;48.828;9.064;2022-07-04T08:21:40;2.60;;;1.45;;
26113;SDS011;13966;48.828;9.064;2022-07-04T08:24:06;6.57;;;1.70;;
26113;SDS011;13966;48.828;9.064;2022-07-04T08:26:32;3.03;;;1.30;;
26113;SDS011;13966;48.828;9.064;2022-07-04T08:28:58;4.72;;;1.33;;
26113;SDS011;13966;48.828;9.064;2022-07-04T08:31:25;4.00;;;1.92;;
26113;SDS011;13966;48.828;9.064;2022-07-04T08:33:52;3.22;;;1.23;;
26113;SDS011;13966;48.828;9.064;2022-07-04T08:36:18;3.90;;;1.35;;
26113;SDS011;13966;48.828;9.064;2022-07-04T08:38:44;3.45;;;1.17;;
26113;SDS011;13966;48.828;9.064;2022-07-04T08:41:10;4.55;;;1.30;;
26113;SDS011;13966;48.828;9.064;2022-07-04T08:43:37;4.47;;;1.67;;
26113;SDS011;13966;48.828;9.064;2022-07-04T08:46:04;3.83;;;1.75;;
26113;SDS011;13966;48.828;9.064;2022-07-04T08:48:31;3.58;;;1.48;;
26113;SDS011;13966;48.828;9.064;2022-07-04T08:50:59;4.68;;;1.20;;
26113;SDS011;13966;48.828;9.064;2022-07-04T08:53:30;3.13;;;1.23;;
26113;SDS011;13966;48.828;9.064;2022-07-04T08:55:56;4.78;;;1.23;;
26113;SDS011;13966;48.828;9.064;2022-07-04T08:58:44;2.10;;;1.20;;
26113;SDS011;13966;48.828;9.064;2022-07-04T09:01:11;2.33;;;1.38;;
26113;SDS011;13966;48.828;9.064;2022-07-04T09:03:41;5.45;;;1.20;;
26113;SDS011;13966;48.828;9.064;2022-07-04T09:06:08;5.18;;;1.42;;
26113;SDS011;13966;48.828;9.064;2022-07-04T09:08:34;4.75;;;1.40;;
26113;SDS011;13966;48.828;9.064;2022-07-04T09:11:00;3.97;;;1.30;;
26113;SDS011;13966;48.828;9.064;2022-07-04T09:13:27;3.70;;;1.38;;
26113;SDS011;13966;48.828;9.064;2022-07-04T09:15:53;6.85;;;1.20;;
26113;SDS011;13966;48.828;9.064;2022-07-04T09:18:30;4.57;;;1.35;;
26113;SDS011;13966;48.828;9.064;2022-07-04T09:20:57;3.10;;;1.27;;
26113;SDS011;13966;48.828;9.064;2022-07-04T09:23:24;3.35;;;1.27;;
26113;SDS011;13966;48.828;9.064;2022-07-04T09:28:36;3.95;;;1.80;;
26113;SDS011;13966;48.828;9.064;2022-07-04T09:31:12;3.15;;;1.40;;
26113;SDS011;13966;48.828;9.064;2022-07-04T09:33:48;7.55;;;1.33;;
26113;SDS011;13966;48.828;9.064;2022-07-04T09:36:15;3.72;;;1.20;;
26113;SDS011;13966;48.828;9.064;2022-07-04T09:38:42;9.35;;;2.10;;
26113;SDS011;13966;48.828;9.064;2022-07-04T09:41:08;4.50;;;1.52;;
26113;SDS011;13966;48.828;9.064;2022-07-04T09:44:03;2.35;;;1.30;;
26113;SDS011;13966;48.828;9.064;2022-07-04T09:46:29;4.65;;;1.65;;
26113;SDS011;13966;48.828;9.064;2022-07-04T09:48:56;3.67;;;1.38;;
26113;SDS011;13966;48.828;9.064;2022-07-04T09:51:38;5.00;;;1.52;;
26113;SDS011;13966;48.828;9.064;2022-07-04T09:54:14;4.35;;;1.23;;
26113;SDS011;13966;48.828;9.064;2022-07-04T09:56:48;6.63;;;1.40;;
26113;SDS011;13966;48.828;9.064;2022-07-04T09:59:16;2.60;;;1.30;;
26113;SDS011;13966;48.828;9.064;2022-07-04T10:01:42;5.93;;;1.45;;
26113;SDS011;13966;48.828;9.064;2022-07-04T10:04:08;4.30;;;1.40;;
26113;SDS011;13966;48.828;9.064;2022-07-04T10:06:37;6.80;;;1.65;;
26113;SDS011;13966;48.828;9.064;2022-07-04T10:09:17;2.30;;;1.33;;
26113;SDS011;13966;48.828;9.064;2022-07-04T10:11:45;2.13;;;1.10;;
26113;SDS011;13966;48.828;9.064;2022-07-04T10:14:12;3.78;;;1.35;;
26113;SDS011;13966;48.828;9.064;2022-07-04T10:16:38;4.45;;;0.90;;
26113;SDS011;13966;48.828;9.064;2022-07-04T10:19:05;2.60;;;1.35;;
26113;SDS011;13966;48.828;9.064;2022-07-04T10:21:31;2.80;;;1.20;;
26113;SDS011;13966;48.828;9.064;2022-07-04T10:23:58;2.03;;;1.30;;
26113;SDS011;13966;48.828;9.064;2022-07-04T10:26:24;2.55;;;1.00;;
26113;SDS011;13966;48.828;9.064;2022-07-04T10:28:52;3.00;;;1.08;;
26113;SDS011;13966;48.828;9.064;2022-07-04T10:31:19;2.05;;;1.02;;
26113;SDS011;13966;48.828;9.064;2022-07-04T10:33:46;3.30;;;0.98;;
26113;SDS011;13966;48.828;9.064;2022-07-04T10:36:13;1.50;;;1.10;;
26113;SDS011;13966;48.828;9.064;2022-07-04T10:38:47;3.92;;;1.10;;
26113;SDS011;13966;48.828;9.064;2022-07-04T10:41:14;2.88;;;1.15;;
26113;SDS011;13966;48.828;9.064;2022-07-04T10:44:22;5.03;;;1.38;;
26113;SDS011;13966;48.828;9.064;2022-07-04T10:46:36;2.20;;;1.00;;
26113;SDS011;13966;48.828;9.064;2022-07-04T10:51:44;1.33;;;0.90;;
26113;SDS011;13966;48.828;9.064;2022-07-04T10:54:17;2.00;;;0.77;;
26113;SDS011;13966;48.828;9.064;2022-07-04T10:56:45;4.07;;;0.70;;
26113;SDS011;13966;48.828;9.064;2022-07-04T10:59:12;3.88;;;0.85;;
26113;SDS011;13966;48.828;9.064;2022-07-04T11:01:43;2.90;;;1.02;;
26113;SDS011;13966;48.828;9.064;2022-07-04T11:04:10;2.13;;;0.90;;
26113;SDS011;13966;48.828;9.064;2022-07-04T11:17:11;3.47;;;1.08;;
26113;SDS011;13966;48.828;9.064;2022-07-04T11:19:37;3.22;;;1.05;;
26113;SDS011;13966;48.828;9.064;2022-07-04T11:22:04;4.22;;;1.25;;
26113;SDS011;13966;48.828;9.064;2022-07-04T11:24:30;3.80;;;1.10;;
26113;SDS011;13966;48.828;9.064;2022-07-04T11:26:57;5.72;;;1.00;;
26113;SDS011;13966;48.828;9.064;2022-07-04T11:29:24;3.03;;;0.82;;
26113;SDS011;13966;48.828;9.064;2022-07-04T11:31:50;4.93;;;1.10;;
26113;SDS011;13966;48.828;9.064;2022-07-04T11:34:18;2.17;;;0.98;;
26113;SDS011;13966;48.828;9.064;2022-07-04T11:36:45;3.78;;;1.10;;
26113;SDS011;13966;48.828;9.064;2022-07-04T11:39:12;0.93;;;0.80;;
26113;SDS011;13966;48.828;9.064;2022-07-04T11:41:40;3.75;;;1.00;;
26113;SDS011;13966;48.828;9.064;2022-07-04T11:44:29;4.55;;;0.82;;
26113;SDS011;13966;48.828;9.064;2022-07-04T11:47:21;2.97;;;0.80;;
26113;SDS011;13966;48.828;9.064;2022-07-04T11:49:48;2.90;;;0.90;;
26113;SDS011;13966;48.828;9.064;2022-07-04T11:52:16;2.08;;;0.93;;
26113;SDS011;13966;48.828;9.064;2022-07-04T11:54:43;2.80;;;0.90;;
26113;SDS011;13966;48.828;9.064;2022-07-04T11:59:38;3.67;;;0.88;;
26113;SDS011;13966;48.828;9.064;2022-07-04T12:02:14;2.60;;;1.00;;
26113;SDS011;13966;48.828;9.064;2022-07-04T12:04:41;1.80;;;0.98;;
26113;SDS011;13966;48.828;9.064;2022-07-04T12:07:10;2.58;;;0.80;;
26113;SDS011;13966;48.828;9.064;2022-07-04T12:09:37;2.22;;;0.90;;
26113;SDS011;13966;48.828;9.064;2022-07-04T12:12:03;1.50;;;0.68;;
26113;SDS011;13966;48.828;9.064;2022-07-04T12:14:29;4.13;;;1.00;;
26113;SDS011;13966;48.828;9.064;2022-07-04T12:17:11;10.35;;;0.85;;
26113;SDS011;13966;48.828;9.064;2022-07-04T12:19:48;2.33;;;0.57;;
26113;SDS011;13966;48.828;9.064;2022-07-04T12:22:23;5.85;;;1.00;;
26113;SDS011;13966;48.828;9.064;2022-07-04T12:24:49;2.75;;;0.77;;
26113;SDS011;13966;48.828;9.064;2022-07-04T12:27:16;5.53;;;0.85;;
26113;SDS011;13966;48.828;9.064;2022-07-04T12:29:49;1.90;;;0.68;;
26113;SDS011;13966;48.828;9.064;2022-07-04T12:32:16;2.22;;;0.85;;
26113;SDS011;13966;48.828;9.064;2022-07-04T12:34:42;3.58;;;0.80;;
26113;SDS011;13966;48.828;9.064;2022-07-04T12:37:09;1.77;;;0.73;;
26113;SDS011;13966;48.828;9.064;2022-07-04T12:39:36;4.22;;;0.80;;
26113;SDS011;13966;48.828;9.064;2022-07-04T12:42:06;6.13;;;1.08;;
26113;SDS011;13966;48.828;9.064;2022-07-04T12:44:32;4.13;;;0.80;;
26113;SDS011;13966;48.828;9.064;2022-07-04T12:46:59;2.78;;;1.05;;
26113;SDS011;13966;48.828;9.064;2022-07-04T12:49:25;2.35;;;0.82;;
26113;SDS011;13966;48.828;9.064;2022-07-04T12:51:53;2.03;;;0.63;;
26113;SDS011;13966;48.828;9.064;2022-07-04T12:54:28;2.20;;;0.63;;
26113;SDS011;13966;48.828;9.064;2022-07-04T12:57:02;2.17;;;0.75;;
26113;SDS011;13966;48.828;9.064;2022-07-04T12:59:29;1.00;;;0.50;;
26113;SDS011;13966;48.828;9.064;2022-07-04T13:01:55;1.00;;;0.50;;
26113;SDS011;13966;48.828;9.064;2022-07-04T13:04:21;2.90;;;0.73;;
26113;SDS011;13966;48.828;9.064;2022-07-04T13:06:47;1.73;;;0.82;;
26113;SDS011;13966;48.828;9.064;2022-07-04T13:09:13;1.63;;;0.50;;
26113;SDS011;13966;48.828;9.064;2022-07-04T13:11:39;1.65;;;0.47;;
26113;SDS011;13966;48.828;9.064;2022-07-04T13:14:24;1.67;;;0.70;;
26113;SDS011;13966;48.828;9.064;2022-07-04T13:16:50;4.22;;;0.80;;
26113;SDS011;13966;48.828;9.064;2022-07-04T13:19:16;1.92;;;0.60;;
26113;SDS011;13966;48.828;9.064;2022-07-04T13:21:42;2.03;;;0.70;;
26113;SDS011;13966;48.828;9.064;2022-07-04T13:24:08;2.28;;;0.73;;
26113;SDS011;13966;48.828;9.064;2022-07-04T13:26:34;2.33;;;0.77;;
26113;SDS011;13966;48.828;9.064;2022-07-04T13:29:02;1.73;;;0.60;;
26113;SDS011;13966;48.828;9.064;2022-07-04T13:31:28;4.43;;;0.60;;
26113;SDS011;13966;48.828;9.064;2022-07-04T13:33:55;1.30;;;0.70;;
26113;SDS011;13966;48.828;9.064;2022-07-04T13:36:21;5.18;;;0.80;;
26113;SDS011;13966;48.828;9.064;2022-07-04T13:38:47;4.25;;;0.88;;
26113;SDS011;13966;48.828;9.064;2022-07-04T13:41:13;1.33;;;0.65;;
26113;SDS011;13966;48.828;9.064;2022-07-04T13:43:39;2.75;;;0.88;;
26113;SDS011;13966;48.828;9.064;2022-07-04T13:46:06;2.50;;;0.60;;
26113;SDS011;13966;48.828;9.064;2022-07-04T13:48:32;2.78;;;0.70;;
26113;SDS011;13966;48.828;9.064;2022-07-04T13:50:58;2.60;;;0.75;;
26113;SDS011;13966;48.828;9.064;2022-07-04T13:53:24;2.75;;;0.90;;
26113;SDS011;13966;48.828;9.064;2022-07-04T13:55:50;5.13;;;0.90;;
26113;SDS011;13966;48.828;9.064;2022-07-04T13:58:16;3.65;;;0.93;;
26113;SDS011;13966;48.828;9.064;2022-07-04T14:00:43;7.00;;;1.10;;
26113;SDS011;13966;48.828;9.064;2022-07-04T14:03:12;4.93;;;1.00;;
26113;SDS011;13966;48.828;9.064;2022-07-04T14:05:40;1.60;;;0.70;;
26113;SDS011;13966;48.828;9.064;2022-07-04T14:08:06;2.25;;;1.00;;
26113;SDS011;13966;48.828;9.064;2022-07-04T14:10:32;2.42;;;0.80;;
26113;SDS011;13966;48.828;9.064;2022-07-04T14:12:58;1.90;;;0.95;;
26113;SDS011;13966;48.828;9.064;2022-07-04T14:15:24;3.28;;;1.00;;
26113;SDS011;13966;48.828;9.064;2022-07-04T14:17:51;3.50;;;1.00;;
26113;SDS011;13966;48.828;9.064;2022-07-04T14:20:17;2.65;;;1.02;;
26113;SDS011;13966;48.828;9.064;2022-07-04T14:22:46;1.48;;;0.90;;
26113;SDS011;13966;48.828;9.064;2022-07-04T14:25:12;5.18;;;0.90;;
26113;SDS011;13966;48.828;9.064;2022-07-04T14:27:38;3.58;;;0.90;;
26113;SDS011;13966;48.828;9.064;2022-07-04T14:30:04;2.00;;;0.93;;
26113;SDS011;13966;48.828;9.064;2022-07-04T14:32:31;2.65;;;1.15;;
26113;SDS011;13966;48.828;9.064;2022-07-04T14:34:57;2.22;;;1.02;;
26113;SDS011;13966;48.828;9.064;2022-07-04T14:37:23;2.05;;;1.10;;
26113;SDS011;13966;48.828;9.064;2022-07-04T14:39:49;2.03;;;1.10;;
26113;SDS011;13966;48.828;9.064;2022-07-04T14:42:15;3.40;;;1.27;;
26113;SDS011;13966;48.828;9.064;2022-07-04T14:44:42;3.25;;;1.15;;
26113;SDS011;13966;48.828;9.064;2022-07-04T14:47:08;3.83;;;1.10;;
26113;SDS011;13966;48.828;9.064;2022-07-04T14:49:34;1.88;;;0.93;;
26113;SDS011;13966;48.828;9.064;2022-07-04T14:52:00;3.08;;;0.80;;
26113;SDS011;13966;48.828;9.064;2022-07-04T14:54:26;10.98;;;1.10;;
26113;SDS011;13966;48.828;9.064;2022-07-04T14:56:52;3.00;;;0.82;;
26113;SDS011;13966;48.828;9.064;2022-07-04T14:59:19;3.70;;;0.77;;
26113;SDS011;13966;48.828;9.064;2022-07-04T15:01:45;3.05;;;1.08;;
26113;SDS011;13966;48.828;9.064;2022-07-04T15:04:11;4.38;;;1.00;;
26113;SDS011;13966;48.828;9.064;2022-07-04T15:06:37;3.33;;;0.70;;
26113;SDS011;13966;48.828;9.064;2022-07-04T15:09:03;4.18;;;0.63;;